Time;durP1;ratioP1;P1;durP2;ratioP2;P2;SDS_P1;SDS_P2;PMS_P1;PMS_P2;Temp;Humidity;BMP_temperature;BMP_pressure;BME280_temperature;BME280_humidity;BME280_pressure;Samples;Min_cycle;Max_cycle;Signal;HPM_P1;HPM_P2
2022/05/14 00:01:50;;;;;;;5.63;3.55;;;15.50;99.90;;;;;;5074814;28;20024;-92
2022/05/14 00:04:16;;;;;;;5.50;3.65;;;15.50;99.90;;;;;;5074836;28;20065;-91
2022/05/14 00:06:42;;;;;;;3.85;3.17;;;15.40;99.90;;;;;;5075009;28;20111;-91
2022/05/14 00:09:08;;;;;;;4.75;3.70;;;15.40;99.90;;;;;;5074908;28;20020;-90
2022/05/14 00:14:21;;;;;;;5.68;3.20;;;15.40;99.90;;;;;;5076195;28;20039;-90
2022/05/14 00:16:47;;;;;;;6.88;3.50;;;15.30;99.90;;;;;;5074560;28;20477;-91
2022/05/14 00:19:13;;;;;;;4.88;2.97;;;15.30;99.90;;;;;;5075894;28;20024;-90
2022/05/14 00:21:40;;;;;;;4.63;3.03;;;15.40;99.90;;;;;;5074479;28;20023;-91
2022/05/14 00:24:06;;;;;;;3.70;3.08;;;15.40;99.90;;;;;;5075552;28;20512;-90
2022/05/14 00:26:37;;;;;;;3.38;2.65;;;15.40;99.90;;;;;;5074334;28;20544;-90
2022/05/14 00:29:05;;;;;;;4.10;2.60;;;15.40;99.90;;;;;;5074401;28;20025;-90
2022/05/14 00:31:31;;;;;;;8.93;2.78;;;15.40;99.90;;;;;;5074252;28;20098;-90
2022/05/14 00:33:57;;;;;;;6.93;2.67;;;15.40;99.90;;;;;;5074031;28;20059;-90
2022/05/14 00:36:23;;;;;;;5.72;2.97;;;15.40;99.90;;;;;;5074325;28;20029;-90
2022/05/14 00:38:49;;;;;;;3.45;2.50;;;15.50;99.90;;;;;;5075261;28;20025;-90
2022/05/14 00:41:15;;;;;;;3.13;2.80;;;15.50;99.90;;;;;;5074812;28;20017;-89
2022/05/14 00:43:53;;;;;;;3.33;2.60;;;15.50;99.90;;;;;;5074246;28;20067;-89
2022/05/14 00:46:21;;;;;;;4.32;2.60;;;15.50;99.90;;;;;;5073989;28;20031;-88
2022/05/14 00:48:48;;;;;;;6.25;2.60;;;15.50;99.90;;;;;;5075228;28;20056;-90
2022/05/14 00:51:18;;;;;;;4.00;2.67;;;15.50;99.90;;;;;;5074999;28;20414;-90
2022/05/14 00:53:50;;;;;;;4.47;2.35;;;15.40;99.90;;;;;;5074805;28;20394;-90
2022/05/14 00:56:20;;;;;;;4.82;2.90;;;15.50;99.90;;;;;;5074037;28;20035;-91
2022/05/14 00:58:56;;;;;;;6.15;2.80;;;15.50;99.90;;;;;;5074985;28;20024;-90
2022/05/14 01:01:23;;;;;;;4.72;2.75;;;15.50;99.90;;;;;;5074706;28;20021;-90
2022/05/14 01:03:49;;;;;;;4.80;2.95;;;15.50;99.90;;;;;;5074648;28;20092;-90
2022/05/14 01:06:18;;;;;;;3.80;3.20;;;15.40;99.90;;;;;;5073608;28;20060;-90
2022/05/14 01:08:44;;;;;;;3.88;2.80;;;15.50;99.90;;;;;;5073748;28;20074;-90
2022/05/14 01:11:12;;;;;;;4.35;3.10;;;15.40;99.90;;;;;;5073506;28;20097;-90
2022/05/14 01:13:38;;;;;;;7.65;3.53;;;15.40;99.90;;;;;;5074567;28;20036;-90
2022/05/14 01:16:04;;;;;;;6.45;4.47;;;15.40;99.90;;;;;;5073354;28;20020;-89
2022/05/14 01:18:35;;;;;;;9.68;4.45;;;15.30;99.90;;;;;;5074466;28;20016;-89
2022/05/14 01:21:48;;;;;;;10.98;4.50;;;15.30;99.90;;;;;;5073552;28;20052;-89
2022/05/14 01:27:19;;;;;;;10.60;6.28;;;15.20;99.90;;;;;;5074789;28;20036;-89
2022/05/14 01:29:46;;;;;;;15.48;7.38;;;15.20;99.90;;;;;;5073364;28;20020;-90
2022/05/14 01:32:13;;;;;;;17.73;7.57;;;15.10;99.90;;;;;;5074368;28;20020;-89
2022/05/14 01:34:38;;;;;;;12.65;7.32;;;15.10;99.90;;;;;;5073100;28;20044;-90
2022/05/14 01:37:05;;;;;;;12.45;6.70;;;15.00;99.90;;;;;;5073383;28;20391;-90
2022/05/14 01:39:31;;;;;;;11.13;5.05;;;15.00;99.90;;;;;;5073151;28;20367;-89
2022/05/14 01:41:57;;;;;;;13.00;5.97;;;15.00;99.90;;;;;;5073262;28;20519;-90
2022/05/14 01:44:23;;;;;;;9.80;5.40;;;15.00;99.90;;;;;;5073261;28;20025;-90
2022/05/14 01:46:49;;;;;;;10.43;5.32;;;15.00;99.90;;;;;;5072886;28;20047;-90
2022/05/14 01:49:15;;;;;;;10.35;5.28;;;15.00;99.90;;;;;;5072951;28;20039;-90
2022/05/14 01:51:42;;;;;;;9.15;5.05;;;15.10;99.90;;;;;;5073206;28;20021;-90
2022/05/14 01:54:07;;;;;;;10.82;5.95;;;15.10;99.90;;;;;;5073196;28;20540;-90
2022/05/14 01:56:33;;;;;;;8.20;4.60;;;15.10;99.90;;;;;;5072979;28;20025;-90
2022/05/14 01:58:59;;;;;;;13.05;5.53;;;15.10;99.90;;;;;;5073296;28;20028;-90
2022/05/14 02:01:29;;;;;;;12.75;5.03;;;15.10;99.90;;;;;;5073417;28;20386;-90
2022/05/14 02:04:18;;;;;;;11.60;5.03;;;15.10;99.90;;;;;;5073450;28;20031;-90
2022/05/14 02:06:44;;;;;;;8.13;4.82;;;15.10;99.90;;;;;;5072885;28;20070;-90
2022/05/14 02:09:12;;;;;;;9.13;4.90;;;15.10;99.90;;;;;;5072936;28;20051;-89
2022/05/14 02:11:39;;;;;;;11.57;5.60;;;15.10;99.90;;;;;;5072933;28;20029;-90
2022/05/14 02:14:06;;;;;;;15.02;7.15;;;15.10;99.90;;;;;;5073120;28;20360;-90
2022/05/14 02:16:32;;;;;;;15.98;7.97;;;15.10;99.90;;;;;;5073836;28;20469;-90
2022/05/14 02:18:57;;;;;;;12.73;6.88;;;15.10;99.90;;;;;;5072791;28;20099;-89
2022/05/14 02:21:24;;;;;;;8.95;6.28;;;15.00;99.90;;;;;;5072854;28;20025;-90
2022/05/14 02:23:53;;;;;;;8.10;5.25;;;15.00;99.90;;;;;;5072856;28;20021;-90
2022/05/14 02:26:20;;;;;;;9.45;5.97;;;15.00;99.90;;;;;;5072815;28;20025;-90
2022/05/14 02:28:46;;;;;;;8.63;5.70;;;15.00;99.90;;;;;;5074109;28;20063;-89
2022/05/14 02:31:12;;;;;;;11.20;5.95;;;15.00;99.90;;;;;;5072575;28;20032;-89
2022/05/14 02:33:38;;;;;;;8.02;4.50;;;15.00;99.90;;;;;;5073574;28;20028;-89
2022/05/14 02:36:07;;;;;;;6.82;4.10;;;15.10;99.90;;;;;;5073579;28;20078;-89
2022/05/14 02:38:33;;;;;;;7.00;4.40;;;15.10;99.90;;;;;;5072885;28;20493;-89
2022/05/14 02:40:59;;;;;;;8.75;4.32;;;15.10;99.90;;;;;;5073007;28;20055;-89
2022/05/14 02:43:26;;;;;;;7.90;4.70;;;15.10;99.90;;;;;;5072742;28;20440;-89
2022/05/14 02:45:52;;;;;;;7.05;4.72;;;15.00;99.90;;;;;;5072575;28;20402;-89
2022/05/14 02:48:18;;;;;;;6.65;4.25;;;15.00;99.90;;;;;;5073719;28;20058;-90
2022/05/14 02:50:44;;;;;;;4.22;3.63;;;15.00;99.90;;;;;;5073334;28;20455;-89
2022/05/14 02:53:10;;;;;;;5.00;4.30;;;15.00;99.90;;;;;;5073818;28;20043;-90
2022/05/14 02:55:36;;;;;;;4.78;3.67;;;15.10;99.90;;;;;;5072728;28;20471;-90
2022/05/14 02:58:02;;;;;;;7.97;3.80;;;15.10;99.90;;;;;;5073793;28;20017;-90
2022/05/14 03:00:27;;;;;;;8.05;4.22;;;15.10;99.90;;;;;;5076047;28;20035;-89
2022/05/14 03:02:53;;;;;;;6.45;4.60;;;15.10;99.90;;;;;;5075530;28;20025;-90
2022/05/14 03:05:22;;;;;;;7.88;4.78;;;15.20;99.90;;;;;;5076063;28;20074;-90
2022/05/14 03:07:47;;;;;;;5.47;4.50;;;15.10;99.90;;;;;;5075880;28;20044;-89
2022/05/14 03:10:14;;;;;;;6.10;4.80;;;15.10;99.90;;;;;;5075910;28;20032;-91
2022/05/14 03:12:40;;;;;;;7.47;4.95;;;15.20;99.90;;;;;;5075865;28;20029;-90
2022/05/14 03:15:07;;;;;;;5.30;4.10;;;15.10;99.90;;;;;;5075904;28;20111;-92
2022/05/14 03:17:34;;;;;;;7.60;4.85;;;15.10;99.90;;;;;;5077111;28;20024;-91
2022/05/14 03:20:06;;;;;;;8.60;3.97;;;15.10;99.90;;;;;;5075730;28;20021;-90
2022/05/14 03:22:33;;;;;;;8.70;4.38;;;15.10;99.90;;;;;;5075847;28;20079;-90
2022/05/14 03:24:59;;;;;;;11.02;4.72;;;15.20;99.90;;;;;;5075679;28;20021;-90
2022/05/14 03:27:25;;;;;;;5.90;4.15;;;15.20;99.90;;;;;;5075673;28;20029;-91
2022/05/14 03:29:51;;;;;;;6.03;4.55;;;15.20;99.90;;;;;;5075507;28;20103;-89
2022/05/14 03:32:16;;;;;;;7.32;4.65;;;15.20;99.90;;;;;;5075430;28;20028;-89
2022/05/14 03:34:42;;;;;;;6.38;4.85;;;15.30;99.90;;;;;;5075316;28;20047;-88
2022/05/14 03:37:08;;;;;;;7.55;5.18;;;15.30;99.90;;;;;;5075265;28;20029;-89
2022/05/14 03:39:34;;;;;;;10.40;6.45;;;15.30;99.90;;;;;;5075341;28;20048;-89
2022/05/14 03:42:00;;;;;;;12.95;6.45;;;15.10;99.90;;;;;;5076162;28;20475;-89
2022/05/14 03:44:25;;;;;;;11.13;6.20;;;15.10;99.90;;;;;;5075179;28;20024;-88
2022/05/14 03:46:51;;;;;;;9.05;6.32;;;15.10;99.90;;;;;;5076215;28;20021;-88
2022/05/14 03:49:17;;;;;;;9.27;6.65;;;15.00;99.90;;;;;;5075079;28;20058;-87
2022/05/14 03:51:43;;;;;;;21.42;14.80;;;15.00;99.90;;;;;;5075052;28;20111;-88
2022/05/14 03:54:09;;;;;;;24.60;15.40;;;15.00;99.90;;;;;;5076200;28;20066;-87
2022/05/14 03:56:39;;;;;;;18.65;13.05;;;14.90;99.90;;;;;;5074845;28;20028;-87
2022/05/14 03:59:06;;;;;;;16.25;11.68;;;14.80;99.90;;;;;;5074573;28;20467;-86
2022/05/14 04:01:32;;;;;;;13.38;9.98;;;14.70;99.90;;;;;;5075663;28;20409;-85
2022/05/14 04:03:58;;;;;;;13.55;10.43;;;14.70;99.90;;;;;;5074008;28;20025;-86
2022/05/14 04:06:24;;;;;;;17.13;10.35;;;14.70;99.90;;;;;;5075674;28;20031;-85
2022/05/14 04:08:50;;;;;;;15.23;8.50;;;14.50;99.90;;;;;;5075629;28;20024;-86
2022/05/14 04:11:15;;;;;;;10.68;8.50;;;14.50;99.90;;;;;;5075512;28;20467;-86
2022/05/14 04:13:41;;;;;;;11.18;8.48;;;14.50;99.90;;;;;;5074152;28;20031;-86
2022/05/14 04:16:07;;;;;;;16.23;9.70;;;14.50;99.90;;;;;;5074111;28;20557;-86
2022/05/14 04:18:33;;;;;;;10.63;8.70;;;14.50;99.90;;;;;;5075408;28;20020;-86
2022/05/14 04:21:00;;;;;;;19.85;9.77;;;14.30;99.90;;;;;;5074124;28;20532;-86
2022/05/14 04:23:28;;;;;;;11.80;8.85;;;14.30;99.90;;;;;;5075249;28;20020;-85
2022/05/14 04:25:55;;;;;;;13.02;9.07;;;14.30;99.90;;;;;;5073904;28;20387;-85
2022/05/14 04:28:21;;;;;;;14.82;10.15;;;14.30;99.90;;;;;;5073277;28;20077;-86
2022/05/14 04:30:48;;;;;;;15.30;10.40;;;14.20;99.90;;;;;;5073559;28;20040;-84
2022/05/14 04:33:15;;;;;;;20.70;12.35;;;14.30;99.90;;;;;;5073497;28;20036;-85
2022/05/14 04:35:41;;;;;;;15.52;10.60;;;14.30;99.90;;;;;;5073411;28;20048;-85
2022/05/14 04:38:07;;;;;;;15.52;11.10;;;14.30;99.90;;;;;;5073729;28;20017;-85
2022/05/14 04:40:33;;;;;;;16.30;11.30;;;14.30;99.90;;;;;;5073604;28;20047;-87
2022/05/14 04:42:59;;;;;;;15.65;10.80;;;14.40;99.90;;;;;;5074907;28;20074;-85
2022/05/14 04:45:24;;;;;;;16.15;11.77;;;14.40;99.90;;;;;;5074767;28;20028;-86
2022/05/14 04:47:50;;;;;;;22.42;12.40;;;14.40;99.90;;;;;;5073608;28;20043;-85
2022/05/14 04:50:16;;;;;;;16.92;11.25;;;14.50;99.90;;;;;;5073587;28;20425;-86
2022/05/14 04:52:42;;;;;;;14.80;10.65;;;14.60;99.90;;;;;;5074345;28;20103;-86
2022/05/14 04:55:09;;;;;;;12.18;10.50;;;14.70;99.90;;;;;;5073293;28;20144;-87
2022/05/14 04:57:35;;;;;;;15.57;9.82;;;14.80;99.90;;;;;;5073376;28;20027;-85
2022/05/14 05:00:02;;;;;;;14.68;10.73;;;14.80;99.90;;;;;;5073166;28;20115;-85
2022/05/14 05:05:13;;;;;;;14.98;10.80;;;14.90;99.90;;;;;;5074510;28;20031;-85
2022/05/14 05:07:39;;;;;;;14.30;9.70;;;14.90;99.90;;;;;;5073082;28;20029;-85
2022/05/14 05:10:06;;;;;;;15.40;10.40;;;15.10;99.90;;;;;;5073039;28;20031;-84
2022/05/14 05:12:32;;;;;;;12.32;9.55;;;15.20;99.90;;;;;;5074058;28;20025;-85
2022/05/14 05:14:58;;;;;;;12.65;9.77;;;15.40;99.90;;;;;;5074413;28;20032;-85
2022/05/14 05:17:23;;;;;;;14.68;9.57;;;15.50;99.90;;;;;;5074022;28;20062;-85
2022/05/14 05:19:49;;;;;;;11.93;9.20;;;15.70;99.90;;;;;;5072841;28;20367;-85
2022/05/14 05:22:15;;;;;;;10.18;9.13;;;15.80;99.90;;;;;;5072344;28;20044;-85
2022/05/14 05:24:41;;;;;;;9.50;8.10;;;15.90;99.90;;;;;;5073962;28;20461;-85
2022/05/14 05:27:07;;;;;;;13.70;8.40;;;16.10;99.90;;;;;;5072729;28;20028;-85
2022/05/14 05:29:33;;;;;;;9.07;7.97;;;16.20;99.90;;;;;;5073962;28;20020;-85
2022/05/14 05:31:59;;;;;;;10.77;8.27;;;16.30;99.90;;;;;;5073954;28;20405;-85
2022/05/14 05:34:25;;;;;;;9.15;8.00;;;16.40;99.90;;;;;;5073373;28;20056;-85
2022/05/14 05:36:52;;;;;;;9.40;8.02;;;16.40;99.90;;;;;;5073748;28;20029;-85
2022/05/14 05:39:18;;;;;;;8.43;7.53;;;16.50;99.90;;;;;;5072615;28;20074;-84
2022/05/14 05:41:44;;;;;;;10.73;7.70;;;16.60;99.90;;;;;;5072503;28;20040;-85
2022/05/14 05:44:10;;;;;;;9.32;7.65;;;16.60;99.90;;;;;;5072081;28;20387;-84
2022/05/14 05:46:36;;;;;;;9.45;8.02;;;16.60;99.90;;;;;;5073677;28;20029;-84
2022/05/14 05:49:01;;;;;;;8.73;7.38;;;16.70;99.90;;;;;;5071955;28;20032;-84
2022/05/14 05:51:27;;;;;;;9.88;7.25;;;16.70;99.90;;;;;;5073489;28;20056;-84
2022/05/14 05:56:56;;;;;;;9.98;6.57;;;16.80;99.90;;;;;;5073777;28;20031;-84
2022/05/14 05:59:23;;;;;;;9.52;6.97;;;17.00;99.90;;;;;;5072392;28;20429;-85
2022/05/14 06:01:51;;;;;;;10.10;6.50;;;17.20;99.90;;;;;;5073500;28;20355;-84
2022/05/14 06:04:17;;;;;;;9.32;6.43;;;17.40;99.90;;;;;;5073556;28;20040;-85
2022/05/14 06:06:43;;;;;;;9.80;5.90;;;17.50;99.90;;;;;;5072187;28;20060;-84
2022/05/14 06:09:18;;;;;;;6.55;5.45;;;17.60;99.90;;;;;;5073503;28;20523;-85
2022/05/14 06:11:44;;;;;;;8.00;5.47;;;17.60;99.90;;;;;;5073687;28;20487;-84
2022/05/14 06:14:10;;;;;;;7.90;5.50;;;17.80;99.90;;;;;;5072051;28;20024;-84
2022/05/14 06:16:37;;;;;;;5.57;4.75;;;17.80;99.90;;;;;;5072166;28;20082;-84
2022/05/14 06:19:03;;;;;;;6.47;5.13;;;17.80;99.90;;;;;;5073366;28;20017;-84
2022/05/14 06:21:29;;;;;;;7.15;5.25;;;17.80;99.90;;;;;;5071652;28;20049;-84
2022/05/14 06:23:55;;;;;;;9.10;5.35;;;17.80;99.90;;;;;;5073528;28;20427;-84
2022/05/14 06:26:22;;;;;;;7.88;5.47;;;17.80;99.90;;;;;;5073310;28;20025;-84
2022/05/14 06:28:47;;;;;;;5.97;4.82;;;17.70;99.90;;;;;;5073175;28;20478;-84
2022/05/14 06:31:16;;;;;;;6.38;5.25;;;17.70;99.90;;;;;;5071900;28;20054;-84
2022/05/14 06:33:43;;;;;;;7.10;4.65;;;17.70;99.90;;;;;;5074326;28;20055;-84
2022/05/14 06:36:09;;;;;;;7.78;5.05;;;17.70;99.90;;;;;;5075851;28;20051;-84
2022/05/14 06:38:35;;;;;;;6.93;5.10;;;17.80;99.90;;;;;;5077252;28;20463;-84
2022/05/14 06:41:10;;;;;;;8.45;4.57;;;17.90;99.90;;;;;;5075555;28;20025;-84
2022/05/14 06:43:36;;;;;;;9.23;5.18;;;18.00;99.90;;;;;;5075580;28;20024;-84
2022/05/14 06:46:03;;;;;;;6.47;4.93;;;17.90;99.90;;;;;;5076953;28;20020;-84
2022/05/14 06:48:29;;;;;;;8.40;4.95;;;17.80;99.90;;;;;;5076687;28;20020;-84
2022/05/14 06:50:58;;;;;;;6.90;4.90;;;17.90;99.90;;;;;;5076898;28;20032;-86
2022/05/14 06:53:24;;;;;;;7.15;4.32;;;17.90;99.90;;;;;;5075271;28;20414;-85
2022/05/14 06:55:55;;;;;;;5.55;4.68;;;18.10;99.90;;;;;;5076266;28;20040;-85
2022/05/14 06:58:26;;;;;;;6.13;4.47;;;18.30;99.90;;;;;;5076704;28;20028;-85
2022/05/14 07:00:52;;;;;;;4.85;4.25;;;18.50;99.90;;;;;;5076924;28;20351;-86
2022/05/14 07:08:47;;;;;;;4.30;3.75;;;18.70;99.90;;;;;;5076839;28;20035;-86
2022/05/14 07:11:13;;;;;;;9.40;4.40;;;19.00;99.90;;;;;;5076732;28;20031;-88
2022/05/14 07:13:39;;;;;;;5.35;4.10;;;19.00;99.90;;;;;;5076833;28;20027;-89
2022/05/14 07:16:05;;;;;;;8.20;4.20;;;19.40;99.90;;;;;;5076669;28;20107;-88
2022/05/14 07:18:32;;;;;;;5.32;4.20;;;19.70;99.90;;;;;;5076463;28;20070;-87
2022/05/14 07:20:58;;;;;;;7.22;4.30;;;19.90;99.90;;;;;;5076536;28;20425;-90
2022/05/14 07:23:24;;;;;;;5.65;4.10;;;19.80;99.90;;;;;;5076658;28;20021;-88
2022/05/14 07:25:50;;;;;;;5.20;3.80;;;20.00;99.90;;;;;;5075508;28;20028;-91
2022/05/14 07:28:15;;;;;;;6.85;4.40;;;20.20;99.90;;;;;;5076467;28;20383;-88
2022/05/14 07:30:41;;;;;;;5.43;4.10;;;20.30;99.90;;;;;;5075473;28;20029;-88
2022/05/14 07:33:07;;;;;;;6.30;4.03;;;20.30;99.90;;;;;;5075312;28;20489;-88
2022/05/14 07:35:34;;;;;;;4.00;3.55;;;20.50;99.90;;;;;;5076209;28;20052;-89
2022/05/14 07:38:03;;;;;;;4.75;4.13;;;20.80;99.90;;;;;;5076412;28;20020;-89
2022/05/14 07:40:33;;;;;;;8.30;3.80;;;21.10;99.90;;;;;;5076523;28;20016;-88
2022/05/14 07:43:08;;;;;;;5.45;3.78;;;21.30;99.90;;;;;;5076399;28;20031;-89
2022/05/14 07:45:41;;;;;;;5.53;3.70;;;21.40;99.90;;;;;;5076025;28;20033;-88
2022/05/14 07:48:22;;;;;;;7.95;4.05;;;21.20;99.90;;;;;;5075065;28;20029;-87
2022/05/14 07:50:48;;;;;;;8.27;4.32;;;21.30;99.90;;;;;;5068883;28;20035;-88
2022/05/14 07:53:15;;;;;;;5.97;4.28;;;21.40;99.90;;;;;;5074882;28;20102;-88
2022/05/14 07:55:43;;;;;;;4.72;3.83;;;21.40;99.90;;;;;;5074891;28;20047;-89
2022/05/14 07:58:09;;;;;;;4.25;3.60;;;21.40;99.90;;;;;;5074704;28;20052;-86
2022/05/14 08:00:35;;;;;;;6.60;3.80;;;21.20;99.10;;;;;;5074542;28;20017;-87
2022/05/14 08:03:02;;;;;;;3.67;3.30;;;21.00;99.10;;;;;;5074575;28;20018;-88
2022/05/14 08:05:28;;;;;;;5.20;3.72;;;20.60;99.90;;;;;;5074720;28;20040;-86
2022/05/14 08:07:54;;;;;;;4.82;3.58;;;20.70;99.90;;;;;;5074501;28;20028;-86
2022/05/14 08:10:20;;;;;;;4.15;3.42;;;20.90;99.90;;;;;;5074014;28;20028;-86
2022/05/14 08:12:50;;;;;;;4.43;3.30;;;20.90;99.90;;;;;;5074155;28;20027;-86
2022/05/14 08:15:16;;;;;;;;;;;21.00;99.70;;;;;;5074754;28;20467;-87
2022/05/14 08:17:42;;;;;;;4.35;3.08;;;20.80;98.70;;;;;;5074571;28;19911;-88
2022/05/14 08:20:09;;;;;;;5.80;3.00;;;20.60;99.50;;;;;;5075625;28;20021;-89
2022/05/14 08:25:19;;;;;;;6.13;2.83;;;20.60;99.90;;;;;;5075774;28;20064;-89
2022/05/14 08:27:45;;;;;;;3.58;2.78;;;20.70;99.70;;;;;;5075533;28;20029;-88
2022/05/14 08:30:19;;;;;;;6.32;3.15;;;20.80;97.80;;;;;;5075574;28;20523;-86
2022/05/14 08:32:45;;;;;;;4.60;3.38;;;20.90;98.30;;;;;;5074031;28;20035;-88
2022/05/14 08:35:12;;;;;;;3.78;3.10;;;21.00;97.70;;;;;;5074033;28;20049;-89
2022/05/14 08:37:38;;;;;;;6.78;3.00;;;21.30;97.30;;;;;;5074063;28;20032;-89
2022/05/14 08:40:13;;;;;;;3.35;3.05;;;21.50;97.60;;;;;;5074963;28;20035;-90
2022/05/14 08:42:39;;;;;;;3.25;2.95;;;21.80;97.40;;;;;;5073221;28;20031;-85
2022/05/14 08:45:06;;;;;;;5.38;3.15;;;21.90;96.50;;;;;;5074001;28;20024;-89
2022/05/14 08:47:37;;;;;;;6.43;2.28;;;22.10;96.80;;;;;;5073828;28;20113;-87
2022/05/14 08:50:04;;;;;;;3.70;2.65;;;21.90;93.40;;;;;;5073803;28;20117;-87
2022/05/14 08:52:31;;;;;;;6.90;2.67;;;21.90;93.70;;;;;;5072822;28;20055;-87
2022/05/14 08:55:04;;;;;;;6.15;2.67;;;21.90;93.50;;;;;;5074778;28;20257;-88
2022/05/14 08:57:38;;;;;;;4.55;2.83;;;22.10;93.80;;;;;;5074104;28;20020;-88
2022/05/14 09:00:08;;;;;;;3.63;2.63;;;22.30;93.50;;;;;;5074813;28;20462;-88
2022/05/14 09:02:40;;;;;;;3.00;2.70;;;22.40;92.60;;;;;;5074856;28;20017;-89
2022/05/14 09:05:13;;;;;;;3.53;2.80;;;22.60;92.90;;;;;;5074506;28;20131;-87
2022/05/14 09:07:39;;;;;;;5.15;2.70;;;22.80;92.70;;;;;;5074519;28;20078;-88
2022/05/14 09:10:09;;;;;;;4.03;2.50;;;22.80;90.70;;;;;;5074729;28;20028;-90
2022/05/14 09:12:49;;;;;;;5.90;3.20;;;22.80;90.80;;;;;;5073788;28;20434;-90
2022/05/14 09:15:16;;;;;;;9.73;2.90;;;22.40;90.60;;;;;;5074775;28;20074;-88
2022/05/14 09:17:42;;;;;;;7.00;3.03;;;22.40;90.90;;;;;;5073621;28;20047;-88
2022/05/14 09:20:08;;;;;;;6.38;3.17;;;22.40;90.30;;;;;;5073371;28;20422;-88
2022/05/14 09:22:44;;;;;;;4.32;2.60;;;22.50;88.50;;;;;;5074387;28;20024;-87
2022/05/14 09:25:27;;;;;;;3.80;2.90;;;22.50;88.10;;;;;;5073095;28;20426;-87
2022/05/14 09:27:59;;;;;;;4.40;2.72;;;22.30;87.60;;;;;;5072964;28;20058;-88
2022/05/14 09:30:34;;;;;;;5.38;2.80;;;22.20;88.30;;;;;;5073271;28;20035;-87
2022/05/14 09:33:00;;;;;;;7.47;2.88;;;22.10;89.40;;;;;;5073122;28;20024;-87
2022/05/14 09:35:29;;;;;;;3.35;3.05;;;21.70;90.10;;;;;;5073021;28;20059;-88
2022/05/14 09:38:10;;;;;;;4.47;3.40;;;21.30;90.70;;;;;;5074399;28;20051;-88
2022/05/14 09:40:37;;;;;;;8.20;4.60;;;20.90;93.20;;;;;;5074354;28;20028;-88
2022/05/14 09:43:29;;;;;;;6.53;3.90;;;20.70;93.80;;;;;;5074250;28;20027;-89
2022/05/14 09:46:11;;;;;;;5.72;3.20;;;20.70;94.30;;;;;;5072694;28;20029;-87
2022/05/14 09:48:48;;;;;;;3.92;3.10;;;20.80;94.30;;;;;;5073392;28;20028;-88
2022/05/14 09:51:29;;;;;;;6.15;3.00;;;20.70;94.30;;;;;;5073088;28;20031;-87
2022/05/14 09:53:55;;;;;;;6.20;3.35;;;20.70;94.50;;;;;;5073163;28;20032;-87
2022/05/14 09:56:34;;;;;;;5.70;3.88;;;20.90;95.40;;;;;;5072885;28;20040;-88
2022/05/14 09:59:25;;;;;;;7.10;4.00;;;21.10;96.40;;;;;;5073937;28;20032;-88
2022/05/14 10:02:11;;;;;;;7.72;4.20;;;21.00;98.90;;;;;;5073067;28;20135;-88
2022/05/14 10:04:55;;;;;;;6.25;4.13;;;20.70;99.00;;;;;;5072933;28;20032;-86
2022/05/14 10:07:42;;;;;;;8.60;3.85;;;20.30;99.40;;;;;;5073728;28;20024;-89
2022/05/14 10:10:29;;;;;;;7.45;4.65;;;19.60;99.90;;;;;;5077417;28;20025;-94
2022/05/14 10:13:11;;;;;;;9.25;4.40;;;18.30;99.90;;;;;;5078308;28;20016;-93
2022/05/14 10:15:58;;;;;;;7.07;2.92;;;17.30;99.90;;;;;;5077030;28;20077;-89
2022/05/14 10:18:49;;;;;;;4.35;2.80;;;16.20;99.90;;;;;;5076781;28;20441;-95
2022/05/14 10:21:15;;;;;;;3.35;2.92;;;15.60;99.90;;;;;;5076847;28;20493;-95
2022/05/14 10:27:11;;;;;;;6.80;5.00;;;15.20;99.90;;;;;;5081095;28;20031;-94
2022/05/14 10:29:56;;;;;;;7.35;4.30;;;15.50;99.90;;;;;;5076767;28;20115;-92
2022/05/14 10:32:30;;;;;;;8.10;5.03;;;15.90;99.90;;;;;;5076815;28;20032;-92
2022/05/14 10:35:05;;;;;;;10.32;5.40;;;16.20;99.90;;;;;;5076279;28;20494;-90
2022/05/14 10:37:40;;;;;;;5.15;4.55;;;16.50;99.90;;;;;;5076584;28;20471;-89
2022/05/14 10:40:10;;;;;;;5.13;4.60;;;16.60;99.90;;;;;;5076495;28;20352;-89
2022/05/14 10:42:50;;;;;;;6.90;4.68;;;16.70;99.90;;;;;;5076573;28;20103;-88
2022/05/14 10:45:38;;;;;;;5.10;4.30;;;16.80;99.90;;;;;;5077308;28;20033;-88
2022/05/14 10:48:32;;;;;;;7.97;3.85;;;17.00;99.90;;;;;;5076319;28;20074;-88
2022/05/14 10:51:00;;;;;;;6.40;4.05;;;17.20;99.90;;;;;;5076087;28;20040;-88
2022/05/14 10:53:26;;;;;;;4.85;4.10;;;17.00;99.90;;;;;;5077148;28;20069;-89
2022/05/14 10:56:08;;;;;;;6.80;4.07;;;17.00;99.90;;;;;;5076012;28;20031;-89
2022/05/14 10:58:58;;;;;;;6.05;4.10;;;16.90;99.90;;;;;;5076109;28;20025;-89
2022/05/14 11:01:27;;;;;;;4.75;4.10;;;16.90;99.90;;;;;;5077124;28;20024;-89
2022/05/14 11:04:07;;;;;;;6.82;4.60;;;16.80;99.90;;;;;;5076343;28;20028;-90
2022/05/14 11:06:36;;;;;;;7.80;5.22;;;16.80;99.90;;;;;;5077115;28;20028;-89
2022/05/14 11:09:38;;;;;;;6.75;5.40;;;16.90;99.90;;;;;;5075863;28;20387;-89
2022/05/14 11:12:27;;;;;;;7.68;5.53;;;17.10;99.90;;;;;;5062706;28;20474;-89
2022/05/14 11:14:55;;;;;;;7.05;4.82;;;17.50;99.90;;;;;;5075542;28;20032;-88
2022/05/14 11:17:27;;;;;;;7.05;4.85;;;17.80;99.90;;;;;;5075854;28;20024;-89
2022/05/14 11:20:05;;;;;;;6.80;4.60;;;18.10;99.90;;;;;;5076008;28;20073;-88
2022/05/14 11:22:41;;;;;;;12.55;4.72;;;18.50;99.90;;;;;;5075803;28;20051;-87
2022/05/14 11:25:22;;;;;;;6.90;4.47;;;18.70;99.90;;;;;;5075556;28;20025;-88
2022/05/14 11:28:27;;;;;;;9.10;4.63;;;18.90;99.90;;;;;;5075456;28;20035;-88
2022/05/14 11:30:55;;;;;;;7.65;4.50;;;19.10;99.90;;;;;;5075616;28;20463;-86
2022/05/14 11:33:27;;;;;;;6.35;4.80;;;19.30;99.90;;;;;;5076545;28;20040;-88
2022/05/14 11:36:02;;;;;;;7.25;4.60;;;19.20;99.90;;;;;;5075450;28;20047;-87
2022/05/14 11:38:30;;;;;;;6.68;4.65;;;19.10;99.90;;;;;;5076738;28;20025;-88
2022/05/14 11:41:01;;;;;;;7.35;5.00;;;19.20;99.90;;;;;;5076366;28;20017;-87
2022/05/14 11:43:26;;;;;;;6.65;4.18;;;19.40;99.90;;;;;;5075064;28;20490;-87
2022/05/14 11:46:20;;;;;;;11.02;4.38;;;19.50;99.90;;;;;;5074853;28;20028;-87
2022/05/14 11:48:55;;;;;;;8.95;3.80;;;19.90;99.90;;;;;;5074933;28;20055;-87
2022/05/14 11:51:42;;;;;;;7.85;3.95;;;20.50;99.90;;;;;;5074800;28;20525;-86
2022/05/14 11:54:09;;;;;;;5.47;3.70;;;21.10;95.10;;;;;;5074654;28;20036;-87
2022/05/14 11:56:47;;;;;;;5.60;3.58;;;21.90;99.90;;;;;;5075828;28;20032;-87
2022/05/14 11:59:26;;;;;;;6.47;3.58;;;22.50;98.60;;;;;;5075766;28;20045;-86
2022/05/14 12:01:53;;;;;;;4.33;3.33;;;23.20;93.50;;;;;;5075702;28;20507;-86
2022/05/14 12:04:31;;;;;;;10.45;3.80;;;23.90;93.70;;;;;;5075690;28;20104;-90
2022/05/14 12:07:28;;;;;;;8.05;3.53;;;24.40;74.40;;;;;;5075978;28;20024;-89
2022/05/14 12:10:19;;;;;;;4.65;3.10;;;24.80;72.80;;;;;;5075943;28;20027;-87
2022/05/14 12:13:22;;;;;;;6.03;4.00;;;25.00;63.70;;;;;;5074573;28;20032;-89
2022/05/14 12:15:55;;;;;;;13.63;4.15;;;24.90;62.80;;;;;;5074188;28;20024;-89
2022/05/14 12:18:22;;;;;;;6.00;3.80;;;25.30;63.70;;;;;;5074453;28;20382;-88
2022/05/14 12:21:05;;;;;;;4.57;2.95;;;25.60;59.00;;;;;;5075387;28;20021;-87
2022/05/14 12:23:36;;;;;;;6.05;2.90;;;25.60;54.80;;;;;;5074244;28;20023;-88
2022/05/14 12:26:25;;;;;;;6.50;3.30;;;25.40;55.80;;;;;;5075267;28;20474;-87
2022/05/14 12:28:56;;;;;;;6.45;3.45;;;25.00;56.70;;;;;;5073484;28;20033;-89
2022/05/14 12:34:19;;;;;;;6.40;3.60;;;24.50;54.90;;;;;;5075313;28;20071;-89
2022/05/14 12:36:54;;;;;;;7.05;3.30;;;24.70;55.40;;;;;;5073861;28;20051;-87
2022/05/14 12:39:27;;;;;;;4.15;2.97;;;25.20;53.90;;;;;;5073858;28;20017;-90
2022/05/14 12:42:01;;;;;;;4.32;3.10;;;25.50;53.20;;;;;;5073631;28;20107;-88
2022/05/14 12:44:32;;;;;;;9.30;3.85;;;26.00;55.10;;;;;;5075127;28;20012;-87
2022/05/14 12:47:01;;;;;;;8.20;3.85;;;26.10;52.80;;;;;;5074869;28;20021;-90
2022/05/14 12:49:30;;;;;;;5.20;4.00;;;25.60;52.70;;;;;;5074114;28;20020;-89
2022/05/14 12:52:00;;;;;;;9.27;4.30;;;25.40;54.90;;;;;;5073670;28;20173;-87
2022/05/14 12:54:29;;;;;;;8.43;4.30;;;25.00;52.00;;;;;;5073469;28;20028;-89
2022/05/14 12:56:57;;;;;;;;;;;24.80;53.50;;;;;;5074987;28;20356;-88
2022/05/14 12:59:23;;;;;;;5.57;3.90;;;24.40;53.70;;;;;;5073571;28;19911;-88
2022/05/14 13:01:54;;;;;;;8.45;4.72;;;24.00;55.20;;;;;;5073463;28;20021;-87
2022/05/14 13:04:28;;;;;;;7.55;4.45;;;23.70;55.90;;;;;;5057479;28;20071;-88
2022/05/14 13:07:00;;;;;;;6.50;4.63;;;24.30;56.40;;;;;;5073329;28;20029;-87
2022/05/14 13:09:28;;;;;;;10.00;4.93;;;25.10;55.70;;;;;;5074775;28;20058;-87
2022/05/14 13:11:56;;;;;;;8.10;4.63;;;25.70;55.40;;;;;;5073443;28;20074;-88
2022/05/14 13:14:29;;;;;;;7.95;4.40;;;26.00;52.60;;;;;;5073663;28;20078;-86
2022/05/14 13:17:01;;;;;;;9.25;5.50;;;26.10;51.30;;;;;;5074485;28;20107;-87
2022/05/14 13:19:43;;;;;;;13.50;5.28;;;26.10;52.10;;;;;;5073208;28;20027;-88
2022/05/14 13:22:13;;;;;;;9.98;5.28;;;26.00;50.80;;;;;;5073088;28;20055;-86
2022/05/14 13:24:50;;;;;;;8.95;4.82;;;26.00;51.20;;;;;;5073195;28;20070;-86
2022/05/14 13:27:26;;;;;;;11.95;4.90;;;26.10;50.90;;;;;;5072891;28;20416;-88